sensor_id;sensor_type;location;lat;lon;timestamp;P1;durP1;ratioP1;P2;durP2;ratioP2
79084;SDS011;68486;42.808;23.422;2023-03-26T00:01:20;3.35;;;1.90;;
79084;SDS011;68486;42.808;23.422;2023-03-26T00:06:17;2.53;;;2.20;;
79084;SDS011;68486;42.808;23.422;2023-03-26T00:08:46;3.15;;;2.08;;
79084;SDS011;68486;42.808;23.422;2023-03-26T00:11:13;2.38;;;1.85;;
79084;SDS011;68486;42.808;23.422;2023-03-26T00:13:40;2.80;;;2.08;;
79084;SDS011;68486;42.808;23.422;2023-03-26T00:16:08;3.53;;;2.60;;
79084;SDS011;68486;42.808;23.422;2023-03-26T00:18:41;3.38;;;2.47;;
79084;SDS011;68486;42.808;23.422;2023-03-26T00:21:09;4.30;;;2.28;;
79084;SDS011;68486;42.808;23.422;2023-03-26T00:23:37;2.78;;;1.92;;
79084;SDS011;68486;42.808;23.422;2023-03-26T00:26:03;3.65;;;2.40;;
79084;SDS011;68486;42.808;23.422;2023-03-26T00:28:38;3.17;;;1.95;;
79084;SDS011;68486;42.808;23.422;2023-03-26T00:31:06;3.22;;;1.80;;
79084;SDS011;68486;42.808;23.422;2023-03-26T00:33:33;2.50;;;1.63;;
79084;SDS011;68486;42.808;23.422;2023-03-26T00:36:03;1.50;;;1.20;;
79084;SDS011;68486;42.808;23.422;2023-03-26T00:38:31;4.18;;;1.65;;
79084;SDS011;68486;42.808;23.422;2023-03-26T00:41:02;2.20;;;1.55;;
79084;SDS011;68486;42.808;23.422;2023-03-26T00:43:30;1.88;;;1.50;;
79084;SDS011;68486;42.808;23.422;2023-03-26T00:45:57;4.25;;;1.83;;
79084;SDS011;68486;42.808;23.422;2023-03-26T00:48:23;1.27;;;1.08;;
79084;SDS011;68486;42.808;23.422;2023-03-26T00:50:51;0.95;;;0.90;;
79084;SDS011;68486;42.808;23.422;2023-03-26T00:53:17;1.98;;;1.30;;
79084;SDS011;68486;42.808;23.422;2023-03-26T00:55:44;2.15;;;1.30;;
79084;SDS011;68486;42.808;23.422;2023-03-26T00:58:11;2.88;;;1.15;;
79084;SDS011;68486;42.808;23.422;2023-03-26T01:00:41;1.90;;;1.20;;
79084;SDS011;68486;42.808;23.422;2023-03-26T01:03:13;1.60;;;1.30;;
79084;SDS011;68486;42.808;23.422;2023-03-26T01:08:15;1.73;;;1.38;;
79084;SDS011;68486;42.808;23.422;2023-03-26T01:11:07;2.08;;;1.38;;
79084;SDS011;68486;42.808;23.422;2023-03-26T01:13:38;2.45;;;1.30;;
79084;SDS011;68486;42.808;23.422;2023-03-26T01:16:08;1.88;;;1.30;;
79084;SDS011;68486;42.808;23.422;2023-03-26T01:18:44;2.00;;;1.33;;
79084;SDS011;68486;42.808;23.422;2023-03-26T01:21:10;1.98;;;1.40;;
79084;SDS011;68486;42.808;23.422;2023-03-26T01:26:17;2.05;;;1.65;;
79084;SDS011;68486;42.808;23.422;2023-03-26T01:29:01;2.10;;;1.40;;
79084;SDS011;68486;42.808;23.422;2023-03-26T01:31:29;2.17;;;1.40;;
79084;SDS011;68486;42.808;23.422;2023-03-26T01:39:25;1.88;;;1.40;;
79084;SDS011;68486;42.808;23.422;2023-03-26T01:42:07;2.47;;;1.60;;
79084;SDS011;68486;42.808;23.422;2023-03-26T01:47:09;2.53;;;1.75;;
79084;SDS011;68486;42.808;23.422;2023-03-26T01:49:37;2.70;;;1.92;;
79084;SDS011;68486;42.808;23.422;2023-03-26T01:52:05;2.63;;;1.80;;
79084;SDS011;68486;42.808;23.422;2023-03-26T01:54:36;2.40;;;1.60;;
79084;SDS011;68486;42.808;23.422;2023-03-26T02:00:38;3.15;;;1.90;;
79084;SDS011;68486;42.808;23.422;2023-03-26T02:05:25;2.97;;;1.70;;
79084;SDS011;68486;42.808;23.422;2023-03-26T02:10:42;2.47;;;1.80;;
79084;SDS011;68486;42.808;23.422;2023-03-26T02:13:11;2.15;;;1.52;;
79084;SDS011;68486;42.808;23.422;2023-03-26T02:15:51;2.55;;;1.40;;
79084;SDS011;68486;42.808;23.422;2023-03-26T02:18:19;1.98;;;1.15;;
79084;SDS011;68486;42.808;23.422;2023-03-26T02:20:48;1.80;;;1.42;;
79084;SDS011;68486;42.808;23.422;2023-03-26T02:23:17;3.80;;;1.65;;
79084;SDS011;68486;42.808;23.422;2023-03-26T02:25:46;2.05;;;1.50;;
79084;SDS011;68486;42.808;23.422;2023-03-26T02:28:12;3.78;;;1.40;;
79084;SDS011;68486;42.808;23.422;2023-03-26T02:30:37;1.33;;;1.08;;
79084;SDS011;68486;42.808;23.422;2023-03-26T02:33:04;2.63;;;1.45;;
79084;SDS011;68486;42.808;23.422;2023-03-26T02:35:32;1.83;;;1.33;;
79084;SDS011;68486;42.808;23.422;2023-03-26T02:37:58;2.22;;;1.50;;
79084;SDS011;68486;42.808;23.422;2023-03-26T02:40:23;2.25;;;1.40;;
79084;SDS011;68486;42.808;23.422;2023-03-26T02:42:49;2.35;;;1.55;;
79084;SDS011;68486;42.808;23.422;2023-03-26T02:45:14;1.58;;;1.45;;
79084;SDS011;68486;42.808;23.422;2023-03-26T02:47:40;1.85;;;1.38;;
79084;SDS011;68486;42.808;23.422;2023-03-26T02:50:07;1.58;;;1.10;;
79084;SDS011;68486;42.808;23.422;2023-03-26T02:52:33;2.20;;;1.10;;
79084;SDS011;68486;42.808;23.422;2023-03-26T02:55:00;2.47;;;1.60;;
79084;SDS011;68486;42.808;23.422;2023-03-26T02:57:25;1.90;;;1.35;;
79084;SDS011;68486;42.808;23.422;2023-03-26T02:59:51;3.95;;;1.67;;
79084;SDS011;68486;42.808;23.422;2023-03-26T03:02:17;1.85;;;1.30;;
79084;SDS011;68486;42.808;23.422;2023-03-26T03:04:43;1.95;;;1.40;;
79084;SDS011;68486;42.808;23.422;2023-03-26T03:07:09;1.70;;;1.40;;
79084;SDS011;68486;42.808;23.422;2023-03-26T03:09:38;2.60;;;1.55;;
79084;SDS011;68486;42.808;23.422;2023-03-26T03:12:04;2.13;;;1.40;;
79084;SDS011;68486;42.808;23.422;2023-03-26T03:14:30;2.28;;;1.63;;
79084;SDS011;68486;42.808;23.422;2023-03-26T03:16:55;2.30;;;1.30;;
79084;SDS011;68486;42.808;23.422;2023-03-26T03:19:21;2.35;;;1.60;;
79084;SDS011;68486;42.808;23.422;2023-03-26T03:21:47;1.42;;;1.30;;
79084;SDS011;68486;42.808;23.422;2023-03-26T03:24:12;1.90;;;1.25;;
79084;SDS011;68486;42.808;23.422;2023-03-26T03:26:42;3.33;;;1.60;;
79084;SDS011;68486;42.808;23.422;2023-03-26T03:29:10;2.78;;;1.60;;
79084;SDS011;68486;42.808;23.422;2023-03-26T03:31:37;2.53;;;1.70;;
79084;SDS011;68486;42.808;23.422;2023-03-26T03:34:02;3.17;;;1.80;;
79084;SDS011;68486;42.808;23.422;2023-03-26T03:36:28;2.25;;;1.65;;
79084;SDS011;68486;42.808;23.422;2023-03-26T03:38:57;2.47;;;1.67;;
79084;SDS011;68486;42.808;23.422;2023-03-26T03:41:26;4.45;;;2.20;;
79084;SDS011;68486;42.808;23.422;2023-03-26T03:43:52;2.50;;;1.90;;
79084;SDS011;68486;42.808;23.422;2023-03-26T03:46:18;4.82;;;2.08;;
79084;SDS011;68486;42.808;23.422;2023-03-26T03:48:46;3.10;;;1.83;;
79084;SDS011;68486;42.808;23.422;2023-03-26T03:51:14;3.13;;;2.25;;
79084;SDS011;68486;42.808;23.422;2023-03-26T03:53:42;2.78;;;1.80;;
79084;SDS011;68486;42.808;23.422;2023-03-26T03:56:10;3.80;;;2.30;;
79084;SDS011;68486;42.808;23.422;2023-03-26T03:58:37;2.25;;;1.70;;
79084;SDS011;68486;42.808;23.422;2023-03-26T04:01:05;3.35;;;1.85;;
79084;SDS011;68486;42.808;23.422;2023-03-26T04:03:30;3.10;;;2.22;;
79084;SDS011;68486;42.808;23.422;2023-03-26T04:06:02;2.65;;;1.83;;
79084;SDS011;68486;42.808;23.422;2023-03-26T04:08:30;2.88;;;1.90;;
79084;SDS011;68486;42.808;23.422;2023-03-26T04:10:56;2.78;;;1.63;;
79084;SDS011;68486;42.808;23.422;2023-03-26T04:13:22;2.05;;;1.80;;
79084;SDS011;68486;42.808;23.422;2023-03-26T04:15:48;1.90;;;1.60;;
79084;SDS011;68486;42.808;23.422;2023-03-26T04:18:13;2.78;;;2.13;;
79084;SDS011;68486;42.808;23.422;2023-03-26T04:20:40;2.83;;;1.88;;
79084;SDS011;68486;42.808;23.422;2023-03-26T04:23:14;2.25;;;1.58;;
79084;SDS011;68486;42.808;23.422;2023-03-26T04:25:49;2.35;;;1.80;;
79084;SDS011;68486;42.808;23.422;2023-03-26T04:30:54;3.90;;;2.20;;
79084;SDS011;68486;42.808;23.422;2023-03-26T04:33:24;4.00;;;2.10;;
79084;SDS011;68486;42.808;23.422;2023-03-26T04:35:59;2.85;;;2.20;;
79084;SDS011;68486;42.808;23.422;2023-03-26T04:38:30;3.03;;;2.03;;
79084;SDS011;68486;42.808;23.422;2023-03-26T04:41:03;3.40;;;2.25;;
79084;SDS011;68486;42.808;23.422;2023-03-26T04:43:31;3.17;;;2.20;;
79084;SDS011;68486;42.808;23.422;2023-03-26T04:45:59;2.22;;;1.60;;
79084;SDS011;68486;42.808;23.422;2023-03-26T04:48:27;3.00;;;1.98;;
79084;SDS011;68486;42.808;23.422;2023-03-26T04:50:55;3.13;;;2.38;;
79084;SDS011;68486;42.808;23.422;2023-03-26T04:53:21;3.78;;;2.70;;
79084;SDS011;68486;42.808;23.422;2023-03-26T04:55:50;3.30;;;2.33;;
79084;SDS011;68486;42.808;23.422;2023-03-26T04:58:19;3.63;;;2.33;;
79084;SDS011;68486;42.808;23.422;2023-03-26T05:00:45;3.90;;;2.60;;
79084;SDS011;68486;42.808;23.422;2023-03-26T05:03:11;3.50;;;2.47;;
79084;SDS011;68486;42.808;23.422;2023-03-26T05:05:37;5.72;;;2.83;;
79084;SDS011;68486;42.808;23.422;2023-03-26T05:08:04;3.63;;;2.13;;
79084;SDS011;68486;42.808;23.422;2023-03-26T05:10:29;4.07;;;2.80;;
79084;SDS011;68486;42.808;23.422;2023-03-26T05:12:56;4.18;;;3.03;;
79084;SDS011;68486;42.808;23.422;2023-03-26T05:15:21;4.00;;;2.42;;
79084;SDS011;68486;42.808;23.422;2023-03-26T05:17:47;3.75;;;2.60;;
79084;SDS011;68486;42.808;23.422;2023-03-26T05:22:44;4.35;;;2.42;;
79084;SDS011;68486;42.808;23.422;2023-03-26T05:25:10;3.33;;;2.65;;
79084;SDS011;68486;42.808;23.422;2023-03-26T05:27:35;3.05;;;2.33;;
79084;SDS011;68486;42.808;23.422;2023-03-26T05:30:01;3.60;;;2.42;;
79084;SDS011;68486;42.808;23.422;2023-03-26T05:32:29;3.25;;;2.65;;
79084;SDS011;68486;42.808;23.422;2023-03-26T05:34:55;5.60;;;3.70;;
79084;SDS011;68486;42.808;23.422;2023-03-26T05:37:20;4.43;;;3.10;;
79084;SDS011;68486;42.808;23.422;2023-03-26T05:39:53;5.18;;;3.35;;
79084;SDS011;68486;42.808;23.422;2023-03-26T05:42:19;3.35;;;2.58;;
79084;SDS011;68486;42.808;23.422;2023-03-26T05:44:45;7.03;;;3.03;;
79084;SDS011;68486;42.808;23.422;2023-03-26T05:47:11;4.05;;;3.00;;
79084;SDS011;68486;42.808;23.422;2023-03-26T05:49:36;4.43;;;3.55;;
79084;SDS011;68486;42.808;23.422;2023-03-26T05:52:02;4.50;;;2.70;;
79084;SDS011;68486;42.808;23.422;2023-03-26T05:54:27;4.78;;;3.35;;
79084;SDS011;68486;42.808;23.422;2023-03-26T05:56:53;5.25;;;3.95;;
79084;SDS011;68486;42.808;23.422;2023-03-26T05:59:20;5.88;;;3.05;;
79084;SDS011;68486;42.808;23.422;2023-03-26T06:01:45;6.40;;;4.65;;
79084;SDS011;68486;42.808;23.422;2023-03-26T06:04:11;6.38;;;4.63;;
79084;SDS011;68486;42.808;23.422;2023-03-26T06:06:37;5.05;;;3.65;;
79084;SDS011;68486;42.808;23.422;2023-03-26T06:09:03;4.70;;;3.03;;
79084;SDS011;68486;42.808;23.422;2023-03-26T06:11:29;5.45;;;3.83;;
79084;SDS011;68486;42.808;23.422;2023-03-26T06:13:58;5.28;;;3.88;;
79084;SDS011;68486;42.808;23.422;2023-03-26T06:16:24;5.93;;;4.50;;
79084;SDS011;68486;42.808;23.422;2023-03-26T06:18:50;6.75;;;4.70;;
79084;SDS011;68486;42.808;23.422;2023-03-26T06:21:18;6.38;;;4.70;;
79084;SDS011;68486;42.808;23.422;2023-03-26T06:23:43;6.50;;;4.00;;
79084;SDS011;68486;42.808;23.422;2023-03-26T06:26:08;6.88;;;4.45;;
79084;SDS011;68486;42.808;23.422;2023-03-26T06:28:34;6.75;;;5.60;;
79084;SDS011;68486;42.808;23.422;2023-03-26T06:31:00;6.72;;;4.22;;
79084;SDS011;68486;42.808;23.422;2023-03-26T06:33:26;7.53;;;5.53;;
79084;SDS011;68486;42.808;23.422;2023-03-26T06:35:52;6.20;;;4.72;;
79084;SDS011;68486;42.808;23.422;2023-03-26T06:38:18;6.75;;;4.63;;
79084;SDS011;68486;42.808;23.422;2023-03-26T06:40:43;6.32;;;4.80;;
79084;SDS011;68486;42.808;23.422;2023-03-26T06:43:09;7.20;;;4.88;;
79084;SDS011;68486;42.808;23.422;2023-03-26T06:45:34;6.38;;;4.65;;
79084;SDS011;68486;42.808;23.422;2023-03-26T06:48:00;5.93;;;4.10;;
79084;SDS011;68486;42.808;23.422;2023-03-26T06:50:26;6.43;;;4.78;;
79084;SDS011;68486;42.808;23.422;2023-03-26T06:52:52;5.38;;;4.30;;
79084;SDS011;68486;42.808;23.422;2023-03-26T06:55:19;7.43;;;4.05;;
79084;SDS011;68486;42.808;23.422;2023-03-26T06:57:48;5.70;;;4.50;;
79084;SDS011;68486;42.808;23.422;2023-03-26T07:00:20;6.07;;;4.47;;
79084;SDS011;68486;42.808;23.422;2023-03-26T07:02:45;4.68;;;3.28;;
79084;SDS011;68486;42.808;23.422;2023-03-26T07:05:11;7.55;;;4.60;;
79084;SDS011;68486;42.808;23.422;2023-03-26T07:07:38;8.48;;;3.95;;
79084;SDS011;68486;42.808;23.422;2023-03-26T07:10:05;10.15;;;5.60;;
79084;SDS011;68486;42.808;23.422;2023-03-26T07:12:31;7.45;;;4.53;;
79084;SDS011;68486;42.808;23.422;2023-03-26T07:14:57;5.13;;;3.85;;
79084;SDS011;68486;42.808;23.422;2023-03-26T07:17:24;6.35;;;4.30;;
79084;SDS011;68486;42.808;23.422;2023-03-26T07:19:50;7.03;;;4.35;;
79084;SDS011;68486;42.808;23.422;2023-03-26T07:22:21;5.80;;;3.75;;
79084;SDS011;68486;42.808;23.422;2023-03-26T07:24:48;5.75;;;3.42;;
79084;SDS011;68486;42.808;23.422;2023-03-26T07:29:58;5.65;;;3.95;;
79084;SDS011;68486;42.808;23.422;2023-03-26T07:32:33;6.40;;;3.42;;
79084;SDS011;68486;42.808;23.422;2023-03-26T07:37:38;6.97;;;4.68;;
79084;SDS011;68486;42.808;23.422;2023-03-26T07:45:41;7.80;;;5.60;;
79084;SDS011;68486;42.808;23.422;2023-03-26T07:48:19;4.15;;;2.83;;
79084;SDS011;68486;42.808;23.422;2023-03-26T07:50:49;7.75;;;4.75;;
79084;SDS011;68486;42.808;23.422;2023-03-26T07:53:15;5.65;;;4.63;;
79084;SDS011;68486;42.808;23.422;2023-03-26T07:56:01;5.32;;;3.65;;
79084;SDS011;68486;42.808;23.422;2023-03-26T08:04:07;6.70;;;4.72;;
79084;SDS011;68486;42.808;23.422;2023-03-26T08:06:55;5.85;;;5.13;;
79084;SDS011;68486;42.808;23.422;2023-03-26T08:09:33;5.72;;;4.55;;
79084;SDS011;68486;42.808;23.422;2023-03-26T08:17:26;5.95;;;4.75;;
79084;SDS011;68486;42.808;23.422;2023-03-26T08:20:01;6.15;;;5.05;;
79084;SDS011;68486;42.808;23.422;2023-03-26T08:22:37;5.45;;;4.07;;
79084;SDS011;68486;42.808;23.422;2023-03-26T08:25:09;5.13;;;3.50;;
79084;SDS011;68486;42.808;23.422;2023-03-26T08:27:55;5.35;;;4.22;;
79084;SDS011;68486;42.808;23.422;2023-03-26T08:30:30;5.53;;;3.35;;
79084;SDS011;68486;42.808;23.422;2023-03-26T08:32:57;5.53;;;3.53;;
79084;SDS011;68486;42.808;23.422;2023-03-26T08:35:27;3.63;;;2.55;;
79084;SDS011;68486;42.808;23.422;2023-03-26T08:37:53;6.03;;;3.15;;
79084;SDS011;68486;42.808;23.422;2023-03-26T08:40:31;4.70;;;3.33;;
79084;SDS011;68486;42.808;23.422;2023-03-26T09:13:04;4.85;;;3.55;;
79084;SDS011;68486;42.808;23.422;2023-03-26T09:20:49;4.07;;;2.83;;
79084;SDS011;68486;42.808;23.422;2023-03-26T09:23:39;2.85;;;2.10;;
79084;SDS011;68486;42.808;23.422;2023-03-26T09:40:18;4.70;;;3.13;;
79084;SDS011;68486;42.808;23.422;2023-03-26T09:46:15;4.57;;;3.13;;
79084;SDS011;68486;42.808;23.422;2023-03-26T09:49:04;2.60;;;1.92;;
79084;SDS011;68486;42.808;23.422;2023-03-26T10:00:56;3.30;;;2.72;;
79084;SDS011;68486;42.808;23.422;2023-03-26T10:06:13;3.50;;;2.55;;
79084;SDS011;68486;42.808;23.422;2023-03-26T10:09:00;2.95;;;2.25;;
79084;SDS011;68486;42.808;23.422;2023-03-26T10:14:50;3.08;;;2.45;;
79084;SDS011;68486;42.808;23.422;2023-03-26T10:17:37;3.72;;;2.33;;
79084;SDS011;68486;42.808;23.422;2023-03-26T10:20:25;7.35;;;2.67;;
79084;SDS011;68486;42.808;23.422;2023-03-26T10:26:18;3.72;;;1.73;;
79084;SDS011;68486;42.808;23.422;2023-03-26T10:35:05;1.55;;;1.27;;
79084;SDS011;68486;42.808;23.422;2023-03-26T10:37:58;4.50;;;1.85;;
79084;SDS011;68486;42.808;23.422;2023-03-26T10:40:47;4.00;;;2.00;;
79084;SDS011;68486;42.808;23.422;2023-03-26T10:52:01;2.92;;;1.52;;
79084;SDS011;68486;42.808;23.422;2023-03-26T11:00:12;3.85;;;1.73;;
79084;SDS011;68486;42.808;23.422;2023-03-26T11:06:05;3.60;;;3.03;;
79084;SDS011;68486;42.808;23.422;2023-03-26T11:11:30;3.30;;;2.17;;
79084;SDS011;68486;42.808;23.422;2023-03-26T11:21:50;2.22;;;1.15;;
79084;SDS011;68486;42.808;23.422;2023-03-26T11:27:15;2.92;;;1.70;;
79084;SDS011;68486;42.808;23.422;2023-03-26T11:30:04;2.53;;;1.92;;
79084;SDS011;68486;42.808;23.422;2023-03-26T11:32:41;2.97;;;1.77;;
79084;SDS011;68486;42.808;23.422;2023-03-26T11:37:57;3.17;;;1.60;;
79084;SDS011;68486;42.808;23.422;2023-03-26T11:40:32;7.47;;;2.00;;
79084;SDS011;68486;42.808;23.422;2023-03-26T11:43:03;15.65;;;2.33;;
79084;SDS011;68486;42.808;23.422;2023-03-26T11:45:33;1.90;;;1.27;;
79084;SDS011;68486;42.808;23.422;2023-03-26T11:48:07;5.68;;;1.40;;
79084;SDS011;68486;42.808;23.422;2023-03-26T11:50:34;2.30;;;1.30;;
79084;SDS011;68486;42.808;23.422;2023-03-26T11:53:09;1.50;;;1.40;;
79084;SDS011;68486;42.808;23.422;2023-03-26T11:58:12;3.40;;;1.63;;
79084;SDS011;68486;42.808;23.422;2023-03-26T12:01:12;2.20;;;1.55;;
79084;SDS011;68486;42.808;23.422;2023-03-26T12:03:40;3.30;;;1.33;;
79084;SDS011;68486;42.808;23.422;2023-03-26T12:06:09;2.28;;;1.75;;
79084;SDS011;68486;42.808;23.422;2023-03-26T12:08:49;2.25;;;1.35;;
79084;SDS011;68486;42.808;23.422;2023-03-26T12:11:23;1.90;;;1.50;;
79084;SDS011;68486;42.808;23.422;2023-03-26T12:13:58;3.25;;;2.55;;
79084;SDS011;68486;42.808;23.422;2023-03-26T12:16:27;3.50;;;1.35;;
79084;SDS011;68486;42.808;23.422;2023-03-26T12:19:36;1.85;;;1.50;;
79084;SDS011;68486;42.808;23.422;2023-03-26T12:21:52;1.55;;;1.10;;
79084;SDS011;68486;42.808;23.422;2023-03-26T12:24:26;1.65;;;1.20;;
79084;SDS011;68486;42.808;23.422;2023-03-26T12:26:57;1.25;;;1.10;;
79084;SDS011;68486;42.808;23.422;2023-03-26T12:29:28;2.20;;;1.40;;
79084;SDS011;68486;42.808;23.422;2023-03-26T12:32:05;7.20;;;3.50;;
79084;SDS011;68486;42.808;23.422;2023-03-26T12:34:37;7.45;;;4.63;;
79084;SDS011;68486;42.808;23.422;2023-03-26T12:37:05;2.10;;;1.40;;
79084;SDS011;68486;42.808;23.422;2023-03-26T12:39:41;2.92;;;1.50;;
79084;SDS011;68486;42.808;23.422;2023-03-26T12:42:30;1.60;;;1.23;;
79084;SDS011;68486;42.808;23.422;2023-03-26T12:44:57;1.67;;;0.82;;
79084;SDS011;68486;42.808;23.422;2023-03-26T12:47:26;3.97;;;1.35;;
79084;SDS011;68486;42.808;23.422;2023-03-26T12:49:53;0.98;;;0.90;;
79084;SDS011;68486;42.808;23.422;2023-03-26T12:57:30;3.50;;;1.42;;
79084;SDS011;68486;42.808;23.422;2023-03-26T13:16:34;1.65;;;1.00;;
79084;SDS011;68486;42.808;23.422;2023-03-26T13:21:37;2.67;;;2.20;;
79084;SDS011;68486;42.808;23.422;2023-03-26T13:26:50;2.50;;;1.58;;
79084;SDS011;68486;42.808;23.422;2023-03-26T13:35:07;5.05;;;1.10;;
79084;SDS011;68486;42.808;23.422;2023-03-26T13:37:55;1.23;;;1.13;;
79084;SDS011;68486;42.808;23.422;2023-03-26T13:52:57;4.95;;;1.30;;
79084;SDS011;68486;42.808;23.422;2023-03-26T14:05:20;2.30;;;1.17;;
79084;SDS011;68486;42.808;23.422;2023-03-26T14:07:54;1.63;;;1.20;;
79084;SDS011;68486;42.808;23.422;2023-03-26T14:10:30;2.38;;;1.27;;
79084;SDS011;68486;42.808;23.422;2023-03-26T14:15:51;2.65;;;1.35;;
79084;SDS011;68486;42.808;23.422;2023-03-26T14:18:36;2.33;;;1.65;;
79084;SDS011;68486;42.808;23.422;2023-03-26T14:26:56;1.58;;;1.15;;
79084;SDS011;68486;42.808;23.422;2023-03-26T14:29:55;1.10;;;1.00;;
79084;SDS011;68486;42.808;23.422;2023-03-26T14:45:42;2.95;;;1.30;;
79084;SDS011;68486;42.808;23.422;2023-03-26T14:53:47;1.02;;;0.90;;
79084;SDS011;68486;42.808;23.422;2023-03-26T15:11:52;2.97;;;1.33;;
79084;SDS011;68486;42.808;23.422;2023-03-26T15:32:03;3.35;;;1.48;;
79084;SDS011;68486;42.808;23.422;2023-03-26T15:42:59;1.35;;;1.20;;
79084;SDS011;68486;42.808;23.422;2023-03-26T15:45:32;1.58;;;1.15;;
79084;SDS011;68486;42.808;23.422;2023-03-26T15:59:20;1.52;;;1.00;;
79084;SDS011;68486;42.808;23.422;2023-03-26T16:02:18;2.25;;;1.00;;
79084;SDS011;68486;42.808;23.422;2023-03-26T16:07:51;1.08;;;0.98;;
79084;SDS011;68486;42.808;23.422;2023-03-26T16:15:41;1.00;;;0.90;;
79084;SDS011;68486;42.808;23.422;2023-03-26T16:18:16;0.88;;;0.85;;
79084;SDS011;68486;42.808;23.422;2023-03-26T16:33:36;1.48;;;1.05;;
79084;SDS011;68486;42.808;23.422;2023-03-26T16:39:10;3.35;;;1.08;;
79084;SDS011;68486;42.808;23.422;2023-03-26T16:46:59;3.30;;;1.40;;
79084;SDS011;68486;42.808;23.422;2023-03-26T17:03:53;1.77;;;1.10;;
79084;SDS011;68486;42.808;23.422;2023-03-26T17:08:58;3.42;;;1.48;;
79084;SDS011;68486;42.808;23.422;2023-03-26T17:11:28;1.00;;;0.80;;
79084;SDS011;68486;42.808;23.422;2023-03-26T17:16:42;1.02;;;0.85;;
79084;SDS011;68486;42.808;23.422;2023-03-26T17:21:53;2.60;;;1.35;;
79084;SDS011;68486;42.808;23.422;2023-03-26T17:27:17;6.20;;;2.60;;
79084;SDS011;68486;42.808;23.422;2023-03-26T17:35:48;4.32;;;2.25;;
79084;SDS011;68486;42.808;23.422;2023-03-26T17:40:51;1.67;;;1.20;;
79084;SDS011;68486;42.808;23.422;2023-03-26T17:46:00;1.52;;;1.20;;
79084;SDS011;68486;42.808;23.422;2023-03-26T17:48:28;1.30;;;0.93;;
79084;SDS011;68486;42.808;23.422;2023-03-26T17:51:02;2.70;;;1.00;;
79084;SDS011;68486;42.808;23.422;2023-03-26T17:56:10;1.55;;;0.82;;
79084;SDS011;68486;42.808;23.422;2023-03-26T17:58:43;1.60;;;1.13;;
79084;SDS011;68486;42.808;23.422;2023-03-26T18:01:20;2.42;;;1.20;;
79084;SDS011;68486;42.808;23.422;2023-03-26T18:03:49;2.15;;;1.40;;
79084;SDS011;68486;42.808;23.422;2023-03-26T18:17:16;1.20;;;1.10;;
79084;SDS011;68486;42.808;23.422;2023-03-26T18:19:48;1.60;;;1.20;;
79084;SDS011;68486;42.808;23.422;2023-03-26T18:22:21;1.17;;;1.00;;
79084;SDS011;68486;42.808;23.422;2023-03-26T18:24:49;1.30;;;0.98;;
79084;SDS011;68486;42.808;23.422;2023-03-26T18:27:19;3.45;;;1.63;;
79084;SDS011;68486;42.808;23.422;2023-03-26T18:29:57;3.58;;;1.77;;
79084;SDS011;68486;42.808;23.422;2023-03-26T18:32:26;3.10;;;1.60;;
79084;SDS011;68486;42.808;23.422;2023-03-26T18:34:58;5.65;;;2.60;;
79084;SDS011;68486;42.808;23.422;2023-03-26T18:37:42;3.33;;;1.77;;
79084;SDS011;68486;42.808;23.422;2023-03-26T18:42:43;2.45;;;1.48;;
79084;SDS011;68486;42.808;23.422;2023-03-26T18:47:51;2.08;;;1.27;;
79084;SDS011;68486;42.808;23.422;2023-03-26T18:50:31;2.15;;;1.50;;
79084;SDS011;68486;42.808;23.422;2023-03-26T18:53:00;1.70;;;1.23;;
79084;SDS011;68486;42.808;23.422;2023-03-26T18:55:28;2.80;;;1.65;;
79084;SDS011;68486;42.808;23.422;2023-03-26T18:57:55;1.20;;;1.10;;
79084;SDS011;68486;42.808;23.422;2023-03-26T19:00:22;1.33;;;1.15;;
79084;SDS011;68486;42.808;23.422;2023-03-26T19:02:50;1.90;;;1.10;;
79084;SDS011;68486;42.808;23.422;2023-03-26T19:05:31;1.10;;;1.00;;
79084;SDS011;68486;42.808;23.422;2023-03-26T19:07:59;1.20;;;0.95;;
79084;SDS011;68486;42.808;23.422;2023-03-26T19:10:27;2.45;;;1.10;;
79084;SDS011;68486;42.808;23.422;2023-03-26T19:13:01;1.42;;;1.15;;
79084;SDS011;68486;42.808;23.422;2023-03-26T19:15:31;1.77;;;1.17;;
79084;SDS011;68486;42.808;23.422;2023-03-26T19:18:00;1.90;;;1.10;;
79084;SDS011;68486;42.808;23.422;2023-03-26T19:20:36;2.47;;;0.93;;
79084;SDS011;68486;42.808;23.422;2023-03-26T19:23:05;1.77;;;1.10;;
79084;SDS011;68486;42.808;23.422;2023-03-26T19:25:49;1.95;;;1.20;;
79084;SDS011;68486;42.808;23.422;2023-03-26T19:28:29;1.83;;;1.30;;
79084;SDS011;68486;42.808;23.422;2023-03-26T19:31:07;2.58;;;1.30;;
79084;SDS011;68486;42.808;23.422;2023-03-26T19:33:38;1.88;;;1.33;;
79084;SDS011;68486;42.808;23.422;2023-03-26T19:38:50;2.97;;;1.40;;
79084;SDS011;68486;42.808;23.422;2023-03-26T19:41:42;2.20;;;1.30;;
79084;SDS011;68486;42.808;23.422;2023-03-26T19:46:45;1.67;;;1.10;;
79084;SDS011;68486;42.808;23.422;2023-03-26T19:49:56;2.17;;;1.60;;
79084;SDS011;68486;42.808;23.422;2023-03-26T19:55:28;3.13;;;1.92;;
79084;SDS011;68486;42.808;23.422;2023-03-26T19:57:54;2.13;;;1.33;;
79084;SDS011;68486;42.808;23.422;2023-03-26T20:00:20;2.58;;;1.48;;
79084;SDS011;68486;42.808;23.422;2023-03-26T20:02:45;2.28;;;1.38;;
79084;SDS011;68486;42.808;23.422;2023-03-26T20:05:23;3.60;;;1.73;;
79084;SDS011;68486;42.808;23.422;2023-03-26T20:07:50;2.25;;;1.45;;
79084;SDS011;68486;42.808;23.422;2023-03-26T20:10:18;2.58;;;1.50;;
79084;SDS011;68486;42.808;23.422;2023-03-26T20:12:44;2.70;;;1.30;;
79084;SDS011;68486;42.808;23.422;2023-03-26T20:15:15;2.13;;;1.35;;
79084;SDS011;68486;42.808;23.422;2023-03-26T20:17:45;2.92;;;1.50;;
79084;SDS011;68486;42.808;23.422;2023-03-26T20:20:13;2.15;;;1.48;;
79084;SDS011;68486;42.808;23.422;2023-03-26T20:22:39;2.25;;;1.58;;
79084;SDS011;68486;42.808;23.422;2023-03-26T20:25:48;1.65;;;1.17;;
79084;SDS011;68486;42.808;23.422;2023-03-26T20:27:56;1.90;;;1.25;;
79084;SDS011;68486;42.808;23.422;2023-03-26T20:30:23;2.38;;;1.38;;
79084;SDS011;68486;42.808;23.422;2023-03-26T20:32:49;1.73;;;1.40;;
79084;SDS011;68486;42.808;23.422;2023-03-26T20:35:22;1.50;;;1.15;;
79084;SDS011;68486;42.808;23.422;2023-03-26T20:37:49;2.30;;;1.67;;
79084;SDS011;68486;42.808;23.422;2023-03-26T20:40:16;4.07;;;1.30;;
79084;SDS011;68486;42.808;23.422;2023-03-26T20:42:42;1.65;;;1.23;;
79084;SDS011;68486;42.808;23.422;2023-03-26T20:45:27;1.33;;;1.02;;
79084;SDS011;68486;42.808;23.422;2023-03-26T20:47:53;1.83;;;1.05;;
79084;SDS011;68486;42.808;23.422;2023-03-26T20:50:20;0.98;;;0.85;;
79084;SDS011;68486;42.808;23.422;2023-03-26T20:52:47;1.92;;;1.20;;
79084;SDS011;68486;42.808;23.422;2023-03-26T20:55:15;1.88;;;1.08;;
79084;SDS011;68486;42.808;23.422;2023-03-26T21:00:11;1.88;;;1.05;;
79084;SDS011;68486;42.808;23.422;2023-03-26T21:02:46;1.35;;;0.95;;
79084;SDS011;68486;42.808;23.422;2023-03-26T21:05:16;1.33;;;1.00;;
79084;SDS011;68486;42.808;23.422;2023-03-26T21:07:49;1.50;;;0.93;;
79084;SDS011;68486;42.808;23.422;2023-03-26T21:10:16;1.45;;;1.17;;
79084;SDS011;68486;42.808;23.422;2023-03-26T21:12:45;2.72;;;1.17;;
79084;SDS011;68486;42.808;23.422;2023-03-26T21:15:19;1.75;;;1.23;;
79084;SDS011;68486;42.808;23.422;2023-03-26T21:17:46;3.03;;;1.83;;
79084;SDS011;68486;42.808;23.422;2023-03-26T21:20:12;3.55;;;2.63;;
79084;SDS011;68486;42.808;23.422;2023-03-26T21:23:03;7.47;;;3.30;;
79084;SDS011;68486;42.808;23.422;2023-03-26T21:25:54;2.38;;;1.60;;
79084;SDS011;68486;42.808;23.422;2023-03-26T21:31:15;1.27;;;1.05;;
79084;SDS011;68486;42.808;23.422;2023-03-26T21:33:42;1.25;;;0.98;;